Time;durP1;ratioP1;P1;durP2;ratioP2;P2;SDS_P1;SDS_P2;PMS_P1;PMS_P2;Temp;Humidity;BMP_temperature;BMP_pressure;BME280_temperature;BME280_humidity;BME280_pressure;Samples;Min_cycle;Max_cycle;Signal;HPM_P1;HPM_P2
2020/12/15 00:02:20;;;;;;;8.50;2.53;;;;;;;2.94;78.13;93611.53;5028946;28;20047;-68
2020/12/15 00:04:45;;;;;;;1.73;1.50;;;;;;;2.87;78.26;93616.75;5028818;28;20063;-68
2020/12/15 00:07:11;;;;;;;8.73;2.65;;;;;;;2.81;78.79;93616.75;5028782;28;20112;-68
2020/12/15 00:09:36;;;;;;;3.50;2.53;;;;;;;2.77;79.11;93608.03;5034757;28;20033;-68
2020/12/15 00:12:01;;;;;;;19.38;5.93;;;;;;;2.59;79.29;93613.22;5022725;28;20060;-68
2020/12/15 00:14:27;;;;;;;20.42;6.65;;;;;;;2.75;79.11;93621.44;5027517;28;20033;-68
2020/12/15 00:16:59;;;;;;;11.82;5.07;;;;;;;2.79;79.16;93621.94;5032651;28;20029;-68
2020/12/15 00:19:25;;;;;;;25.95;6.93;;;;;;;2.78;79.34;93614.25;5031838;28;20037;-68
2020/12/15 00:21:52;;;;;;;7.72;3.47;;;;;;;2.82;79.02;93622.91;5026038;28;20124;-67
2020/12/15 00:24:18;;;;;;;22.80;8.52;;;;;;;2.81;78.92;93630.38;5030210;28;20040;-67
2020/12/15 00:26:44;;;;;;;17.42;6.05;;;;;;;2.88;78.38;93634.59;5022072;28;20021;-66
2020/12/15 00:29:12;;;;;;;5.85;2.63;;;;;;;2.92;78.94;93635.09;5027220;28;20033;-66
2020/12/15 00:31:37;;;;;;;3.83;1.90;;;;;;;2.86;78.57;93629.63;5020737;28;20501;-66
2020/12/15 00:34:03;;;;;;;7.57;3.47;;;;;;;2.79;78.91;93630.13;5022651;28;20060;-66
2020/12/15 00:36:29;;;;;;;12.00;4.88;;;;;;;2.80;78.94;93622.66;5024393;28;20488;-66
2020/12/15 00:38:55;;;;;;;9.85;3.20;;;;;;;2.62;79.08;93628.63;5029553;28;20046;-65
2020/12/15 00:41:20;;;;;;;5.45;2.03;;;;;;;2.63;79.34;93614.47;5030100;28;20043;-66
2020/12/15 00:43:46;;;;;;;3.80;1.80;;;;;;;2.56;79.41;93609.50;5029831;27;20041;-66
2020/12/15 00:46:13;;;;;;;3.05;1.52;;;;;;;2.57;80.30;93618.44;5030418;28;20036;-64
2020/12/15 00:48:39;;;;;;;2.80;1.80;;;;;;;2.60;79.79;93620.19;5026344;27;20481;-65
2020/12/15 00:51:04;;;;;;;2.67;1.52;;;;;;;2.60;80.21;93622.91;5024910;28;20017;-65
2020/12/15 00:53:30;;;;;;;3.38;1.80;;;;;;;2.67;80.34;93611.50;5031768;27;20980;-64
2020/12/15 00:55:55;;;;;;;3.03;2.08;;;;;;;2.60;80.22;93620.19;5030538;28;20477;-64
2020/12/15 00:58:21;;;;;;;2.65;1.83;;;;;;;2.58;80.12;93611.75;5029848;28;20029;-64
2020/12/15 01:00:46;;;;;;;1.92;1.73;;;;;;;2.52;80.25;93619.91;5037686;28;20048;-66
2020/12/15 01:03:11;;;;;;;2.70;2.15;;;;;;;2.45;80.77;93614.94;5034139;27;20041;-66
2020/12/15 01:05:37;;;;;;;14.20;7.05;;;;;;;2.44;81.28;93610.72;5030056;27;20026;-65
2020/12/15 01:08:03;;;;;;;8.73;3.30;;;;;;;2.39;81.33;93608.72;5031964;27;20036;-67
2020/12/15 01:10:28;;;;;;;10.25;5.40;;;;;;;2.36;81.74;93612.44;5040165;28;20113;-66
2020/12/15 01:12:54;;;;;;;12.23;4.82;;;;;;;2.40;80.66;93609.47;5033472;28;20064;-66
2020/12/15 01:15:19;;;;;;;20.67;9.55;;;;;;;2.35;80.78;93597.34;5026127;28;20033;-66
2020/12/15 01:17:44;;;;;;;11.40;6.35;;;;;;;2.37;80.96;93596.84;5035579;27;20053;-66
2020/12/15 01:20:10;;;;;;;6.80;3.80;;;;;;;2.37;80.54;93611.22;5028098;28;20052;-65
2020/12/15 01:22:35;;;;;;;25.10;10.25;;;;;;;2.45;79.71;93619.66;5030081;28;20460;-66
2020/12/15 01:25:01;;;;;;;9.70;4.78;;;;;;;2.24;80.26;93617.13;5035805;28;20826;-66
2020/12/15 01:27:26;;;;;;;11.52;5.88;;;;;;;2.10;80.73;93606.44;5034306;28;20041;-66
2020/12/15 01:29:51;;;;;;;10.60;5.47;;;;;;;2.09;81.17;93613.09;5029459;27;20032;-66
2020/12/15 01:32:17;;;;;;;12.90;6.40;;;;;;;2.18;80.92;93610.91;5029984;27;20055;-66
2020/12/15 01:34:42;;;;;;;10.73;6.10;;;;;;;2.20;80.88;93621.31;5033345;27;20453;-67
2020/12/15 01:37:08;;;;;;;16.23;9.18;;;;;;;2.15;80.53;93619.31;5030224;28;20062;-67
2020/12/15 01:39:33;;;;;;;14.90;6.68;;;;;;;2.22;80.46;93627.75;5027704;27;20033;-67
2020/12/15 01:41:59;;;;;;;10.00;4.32;;;;;;;2.10;81.32;93628.22;5030802;28;20025;-66
2020/12/15 01:44:24;;;;;;;10.00;5.47;;;;;;;2.17;81.55;93627.72;5029566;28;20064;-66
2020/12/15 01:46:50;;;;;;;11.27;6.10;;;;;;;2.15;81.03;93627.47;5030257;27;20037;-66
2020/12/15 01:49:17;;;;;;;18.73;9.15;;;;;;;2.09;81.09;93627.47;5030107;27;20030;-66
2020/12/15 01:51:44;;;;;;;11.85;5.97;;;;;;;2.08;80.74;93625.25;5030331;28;20044;-66
2020/12/15 01:54:10;;;;;;;10.18;5.20;;;;;;;2.04;81.84;93630.16;5026193;28;20120;-66
2020/12/15 01:56:35;;;;;;;14.40;5.93;;;;;;;1.84;82.44;93605.84;5034779;27;20082;-66
2020/12/15 01:59:03;;;;;;;11.18;5.65;;;;;;;1.88;82.76;93628.13;5030847;27;20036;-66
2020/12/15 02:01:28;;;;;;;12.25;5.50;;;;;;;1.70;83.27;93634.72;5033219;28;20185;-66
2020/12/15 02:03:54;;;;;;;9.98;5.75;;;;;;;1.71;83.90;93638.91;5029511;27;20041;-66
2020/12/15 02:06:20;;;;;;;14.48;7.40;;;;;;;1.83;83.68;93642.44;5030083;27;20045;-66
2020/12/15 02:08:46;;;;;;;14.55;6.50;;;;;;;1.70;82.91;93642.13;5039912;28;20875;-67
2020/12/15 02:11:12;;;;;;;12.60;6.05;;;;;;;1.74;83.84;93650.81;5030040;28;20152;-67
2020/12/15 02:13:37;;;;;;;14.73;5.18;;;;;;;1.75;83.83;93644.91;5031703;28;20065;-67
2020/12/15 02:16:08;;;;;;;9.60;5.28;;;;;;;1.86;83.34;93644.94;5032485;28;20037;-67
2020/12/15 02:18:34;;;;;;;7.85;4.22;;;;;;;1.85;84.02;93646.19;5030105;28;20040;-67
2020/12/15 02:21:03;;;;;;;4.90;3.22;;;;;;;1.92;83.92;93647.69;5026479;28;20032;-67
2020/12/15 02:23:28;;;;;;;9.18;4.88;;;;;;;1.99;82.79;93664.28;5029308;27;20060;-67
2020/12/15 02:25:54;;;;;;;19.52;8.60;;;;;;;1.90;82.86;93655.59;5028021;28;20742;-66
2020/12/15 02:28:19;;;;;;;17.35;8.40;;;;;;;1.90;83.12;93640.03;5033477;28;20069;-66
2020/12/15 02:30:45;;;;;;;9.13;5.53;;;;;;;1.97;83.50;93660.59;5026498;27;20644;-66
2020/12/15 02:33:10;;;;;;;6.65;4.05;;;;;;;2.03;83.84;93653.94;5025231;28;20061;-65
2020/12/15 02:35:36;;;;;;;5.63;3.90;;;;;;;2.07;83.47;93649.00;5033843;28;20029;-65
2020/12/15 02:38:01;;;;;;;6.28;4.68;;;;;;;2.18;82.74;93648.31;5029460;28;20029;-66
2020/12/15 02:40:26;;;;;;;5.53;3.53;;;;;;;2.18;83.42;93651.78;5035004;27;20404;-66
2020/12/15 02:42:52;;;;;;;4.60;3.17;;;;;;;2.14;83.40;93640.34;5034794;28;20461;-65
2020/12/15 02:45:17;;;;;;;7.18;3.42;;;;;;;2.17;83.71;93649.53;5034555;28;20047;-65
2020/12/15 02:47:43;;;;;;;4.50;2.58;;;;;;;2.16;83.29;93656.22;5030679;28;20507;-65
2020/12/15 02:50:09;;;;;;;4.85;3.00;;;;;;;2.26;83.76;93652.03;5027799;28;20033;-67
2020/12/15 02:52:35;;;;;;;5.82;3.55;;;;;;;2.18;84.09;93645.56;5034234;28;20061;-67
2020/12/15 02:55:01;;;;;;;3.67;2.47;;;;;;;2.30;83.80;93647.09;5033018;28;20094;-67
2020/12/15 02:57:26;;;;;;;2.15;1.95;;;;;;;2.43;83.32;93655.56;5025308;28;20044;-66
2020/12/15 02:59:51;;;;;;;2.20;1.92;;;;;;;2.52;83.15;93652.59;5033055;27;20819;-67
2020/12/15 03:02:19;;;;;;;4.97;2.75;;;;;;;2.57;83.01;93649.16;5032903;28;20048;-67
2020/12/15 03:04:45;;;;;;;4.82;2.90;;;;;;;2.68;82.38;93659.34;5037236;28;20040;-67
2020/12/15 03:07:10;;;;;;;1.85;1.67;;;;;;;2.69;81.88;93649.91;5024493;28;20034;-66
2020/12/15 03:09:36;;;;;;;3.30;2.03;;;;;;;2.73;81.58;93656.63;5031414;28;20029;-68
2020/12/15 03:12:01;;;;;;;2.88;2.35;;;;;;;2.65;81.76;93647.44;5027025;28;20040;-68
2020/12/15 03:14:26;;;;;;;9.18;6.65;;;;;;;2.62;81.91;93650.41;5028884;28;20037;-68
2020/12/15 03:16:52;;;;;;;9.35;5.65;;;;;;;2.77;81.38;93661.84;5027410;28;20035;-68
2020/12/15 03:19:17;;;;;;;2.88;2.38;;;;;;;2.79;81.20;93664.81;5023806;28;20590;-68
2020/12/15 03:21:43;;;;;;;3.42;2.03;;;;;;;2.83;81.62;93662.59;5030078;28;20025;-67
2020/12/15 03:24:08;;;;;;;3.72;2.70;;;;;;;2.84;81.30;93673.00;5043079;28;20037;-67
2020/12/15 03:26:34;;;;;;;4.13;3.08;;;;;;;2.76;81.88;93673.97;5032342;28;20057;-67
2020/12/15 03:28:59;;;;;;;4.50;3.30;;;;;;;2.86;81.80;93675.97;5026909;28;20044;-68
2020/12/15 03:31:24;;;;;;;3.83;2.88;;;;;;;2.90;81.42;93681.19;5022987;28;20045;-67
2020/12/15 03:33:50;;;;;;;4.38;2.90;;;;;;;2.89;81.27;93682.44;5024561;28;20465;-68
2020/12/15 03:36:16;;;;;;;4.22;2.50;;;;;;;2.95;81.23;93683.19;5027726;28;20033;-68
2020/12/15 03:38:42;;;;;;;6.25;4.40;;;;;;;2.97;80.91;93681.44;5041504;28;20044;-67
2020/12/15 03:41:09;;;;;;;6.95;4.60;;;;;;;2.97;80.87;93681.44;5029861;28;20033;-68
2020/12/15 03:43:35;;;;;;;6.30;3.75;;;;;;;3.07;80.49;93690.88;5033163;28;20383;-68
2020/12/15 03:46:00;;;;;;;11.80;6.22;;;;;;;2.97;nan;93692.34;5030992;28;20033;-68
2020/12/15 03:48:25;;;;;;;5.70;3.78;;;;;;;3.00;80.92;93677.75;5028111;28;20040;-68
2020/12/15 03:50:51;;;;;;;6.43;4.00;;;;;;;3.04;80.84;93694.59;5024049;28;20699;-68
2020/12/15 03:53:16;;;;;;;6.00;3.75;;;;;;;2.80;81.00;93671.75;5029007;28;20037;-68
2020/12/15 03:55:47;;;;;;;6.10;3.45;;;;;;;3.06;80.44;93697.59;5033658;28;20041;-68
2020/12/15 03:58:14;;;;;;;4.07;2.88;;;;;;;3.03;80.56;93703.28;5022763;28;20029;-68
2020/12/15 04:00:39;;;;;;;1.98;1.77;;;;;;;3.04;80.62;93704.75;5029019;28;20105;-68
2020/12/15 04:03:04;;;;;;;5.63;3.35;;;;;;;2.95;80.77;93715.91;5030783;28;20021;-68
2020/12/15 04:05:30;;;;;;;6.53;4.40;;;;;;;2.84;81.07;93686.63;5025145;28;20465;-67
2020/12/15 04:07:55;;;;;;;5.55;4.05;;;;;;;3.02;80.84;93718.16;5022568;28;20032;-68
2020/12/15 04:10:20;;;;;;;7.40;4.55;;;;;;;3.08;80.41;93716.94;5033431;28;20033;-68
2020/12/15 04:12:46;;;;;;;12.50;5.28;;;;;;;3.13;80.38;93717.41;5030817;28;20461;-67
2020/12/15 04:15:11;;;;;;;10.05;6.03;;;;;;;3.06;80.14;93711.22;5035113;28;20025;-66
2020/12/15 04:17:37;;;;;;;8.98;5.20;;;;;;;3.03;79.94;93709.47;5025165;28;20476;-67
2020/12/15 04:20:04;;;;;;;9.18;5.50;;;;;;;3.13;80.49;93720.16;5037709;28;20028;-67
2020/12/15 04:22:30;;;;;;;6.85;4.72;;;;;;;3.14;79.68;93711.47;5027843;28;20029;-67
2020/12/15 04:24:55;;;;;;;10.18;5.85;;;;;;;2.99;80.09;93689.88;5038966;28;20414;-66
2020/12/15 04:27:20;;;;;;;7.93;4.68;;;;;;;3.18;80.16;93722.91;5031448;28;20075;-66
2020/12/15 04:29:46;;;;;;;6.00;3.70;;;;;;;3.23;79.36;93726.88;5027059;28;21448;-66
2020/12/15 04:32:11;;;;;;;9.77;4.43;;;;;;;3.19;79.80;93729.09;5025654;28;20033;-66
2020/12/15 04:34:36;;;;;;;7.65;3.85;;;;;;;3.21;79.66;93724.63;5032685;27;20041;-66
2020/12/15 04:37:02;;;;;;;4.70;3.83;;;;;;;3.34;79.47;93740.50;5030287;28;20145;-66
2020/12/15 04:39:27;;;;;;;7.50;5.22;;;;;;;3.35;79.70;93742.00;5032599;27;20029;-66
2020/12/15 04:41:53;;;;;;;7.35;4.85;;;;;;;3.29;79.88;93739.25;5029756;27;20077;-66
2020/12/15 04:44:18;;;;;;;4.93;3.30;;;;;;;3.21;80.10;93746.44;5031872;28;20400;-66
2020/12/15 04:47:17;;;;;;;5.22;3.70;;;;;;;3.22;79.91;93750.69;5037910;28;20047;-66
2020/12/15 04:49:59;;;;;;;7.90;3.45;;;;;;;3.14;80.59;93754.38;5027111;28;20467;-66
2020/12/15 04:52:29;;;;;;;3.20;2.58;;;;;;;3.15;80.43;93756.63;5027712;28;20381;-67
2020/12/15 04:54:55;;;;;;;4.50;3.17;;;;;;;3.10;80.01;93746.44;5027635;27;20533;-67
2020/12/15 04:57:21;;;;;;;4.50;2.70;;;;;;;3.11;80.56;93749.91;5028175;28;20060;-67
2020/12/15 04:59:51;;;;;;;4.60;3.40;;;;;;;3.24;80.22;93770.03;5034739;28;20488;-67
2020/12/15 05:02:18;;;;;;;4.20;2.88;;;;;;;3.18;80.71;93763.06;5036244;27;20021;-67
2020/12/15 05:04:43;;;;;;;6.07;3.80;;;;;;;3.23;80.46;93767.81;5027474;28;20524;-67
2020/12/15 05:07:11;;;;;;;6.70;4.47;;;;;;;3.26;80.37;93767.56;5036495;28;20037;-65
2020/12/15 05:09:37;;;;;;;6.43;4.22;;;;;;;3.34;80.07;93773.25;5026296;27;20404;-66
2020/12/15 05:12:03;;;;;;;7.53;4.03;;;;;;;3.36;79.73;93782.44;5035424;28;20021;-66
2020/12/15 05:14:28;;;;;;;10.70;5.40;;;;;;;3.27;79.60;93768.31;5026736;28;20060;-67
2020/12/15 05:16:54;;;;;;;8.40;4.57;;;;;;;3.24;79.37;93772.00;5029349;27;20061;-66
2020/12/15 05:19:20;;;;;;;10.85;5.32;;;;;;;3.46;78.90;93785.69;5033684;28;20101;-67
2020/12/15 05:21:56;;;;;;;11.25;6.95;;;;;;;3.42;78.77;93799.56;5032500;28;20032;-67
2020/12/15 05:24:29;;;;;;;10.90;5.55;;;;;;;3.26;79.31;93799.53;5028245;28;20594;-66
2020/12/15 05:26:59;;;;;;;15.77;7.78;;;;;;;3.13;79.26;93786.38;5027254;28;20108;-66
2020/12/15 05:29:25;;;;;;;16.38;10.93;;;;;;;3.23;79.51;93803.28;5027964;28;20032;-67
2020/12/15 05:31:51;;;;;;;11.65;6.07;;;;;;;3.31;79.25;93809.72;5028888;28;20032;-66
2020/12/15 05:34:24;;;;;;;9.85;5.60;;;;;;;3.35;79.29;93813.72;5027264;28;20049;-67
2020/12/15 05:36:59;;;;;;;13.80;7.32;;;;;;;3.30;79.46;93808.22;5028488;28;20029;-65
2020/12/15 05:39:26;;;;;;;12.57;7.40;;;;;;;3.27;79.38;93817.41;5033591;28;20085;-64
2020/12/15 05:42:00;;;;;;;11.55;6.38;;;;;;;3.21;79.57;93808.44;5028152;27;20041;-64
2020/12/15 05:44:29;;;;;;;17.83;9.95;;;;;;;3.30;79.74;93814.44;5013544;28;20160;-65
2020/12/15 05:47:02;;;;;;;16.90;9.10;;;;;;;3.34;79.06;93817.66;5028061;27;20128;-67
2020/12/15 05:49:30;;;;;;;15.52;8.52;;;;;;;3.33;79.46;93812.72;5029195;28;21851;-67
2020/12/15 05:51:55;;;;;;;16.38;8.95;;;;;;;3.32;78.97;93811.22;5029258;28;20049;-68
2020/12/15 05:54:21;;;;;;;12.25;6.75;;;;;;;3.33;79.27;93816.19;5028403;27;20087;-68
2020/12/15 05:56:47;;;;;;;14.30;8.18;;;;;;;3.44;78.71;93815.47;5027143;27;20037;-68
2020/12/15 05:59:20;;;;;;;19.02;10.27;;;;;;;3.50;78.73;93816.97;5025423;28;20037;-67
2020/12/15 06:01:53;;;;;;;21.48;11.27;;;;;;;3.37;78.58;93815.94;5031851;28;20085;-66
2020/12/15 06:04:19;;;;;;;34.30;17.33;;;;;;;3.30;79.75;93822.63;5030955;28;21397;-66
2020/12/15 06:06:45;;;;;;;33.88;15.52;;;;;;;3.40;78.88;93826.59;5038797;28;20501;-67
2020/12/15 06:09:15;;;;;;;22.33;12.10;;;;;;;3.43;78.60;93833.81;5029744;28;20029;-66
2020/12/15 06:11:42;;;;;;;34.40;13.55;;;;;;;3.56;78.61;93836.06;5032543;28;20416;-67
2020/12/15 06:14:09;;;;;;;18.67;10.48;;;;;;;3.37;78.67;93838.53;5024975;28;20029;-66
2020/12/15 06:16:35;;;;;;;15.05;8.45;;;;;;;3.50;78.89;93840.78;5031192;28;20736;-64
2020/12/15 06:19:00;;;;;;;24.38;9.38;;;;;;;3.46;77.99;93834.81;5028579;28;20044;-65
2020/12/15 06:21:27;;;;;;;29.73;14.73;;;;;;;3.51;78.48;93842.28;5029089;28;20032;-65
2020/12/15 06:24:04;;;;;;;26.23;13.00;;;;;;;3.37;78.95;93843.22;5031404;28;20033;-69
2020/12/15 06:26:32;;;;;;;11.38;6.35;;;;;;;3.37;78.39;93843.22;5034073;28;20112;-63
2020/12/15 06:29:05;;;;;;;14.25;7.20;;;;;;;3.22;78.72;93835.25;5032389;28;20465;-66
2020/12/15 06:31:32;;;;;;;13.13;6.80;;;;;;;3.37;77.84;93840.50;5037739;27;20504;-65
2020/12/15 06:33:58;;;;;;;9.45;4.93;;;;;;;3.22;78.65;93848.91;5032835;28;20128;-64
2020/12/15 06:36:31;;;;;;;12.27;6.15;;;;;;;3.13;79.04;93851.09;5027301;28;20041;-62
2020/12/15 06:39:00;;;;;;;13.57;6.28;;;;;;;3.08;79.75;93847.09;5030687;28;20055;-63
2020/12/15 06:41:26;;;;;;;11.55;6.35;;;;;;;3.01;79.45;93848.31;5028080;28;21727;-63
2020/12/15 06:43:52;;;;;;;10.52;6.13;;;;;;;2.92;79.73;93840.34;5031398;28;20052;-66
2020/12/15 06:46:27;;;;;;;12.85;6.72;;;;;;;2.84;80.03;93842.06;5032944;28;20044;-66
2020/12/15 06:48:54;;;;;;;13.63;7.78;;;;;;;2.71;80.16;93844.47;5031841;28;20036;-68
2020/12/15 06:51:34;;;;;;;9.57;6.25;;;;;;;2.94;79.75;93858.97;5029410;28;20029;-67
2020/12/15 06:54:00;;;;;;;11.93;6.25;;;;;;;2.91;80.40;93851.75;5022170;28;20049;-67
2020/12/15 06:56:26;;;;;;;9.32;5.68;;;;;;;2.94;79.55;93850.78;5029857;28;20040;-67
2020/12/15 06:59:07;;;;;;;9.63;5.40;;;;;;;2.85;79.88;93862.66;5026204;28;20041;-67
2020/12/15 07:01:33;;;;;;;11.73;6.30;;;;;;;2.89;80.38;93854.97;5027388;27;20071;-67
2020/12/15 07:04:02;;;;;;;50.53;21.67;;;;;;;3.06;80.16;93869.44;5025289;28;20040;-66
2020/12/15 07:06:28;;;;;;;14.00;7.18;;;;;;;3.22;79.70;93865.28;5024604;28;20025;-66
2020/12/15 07:08:57;;;;;;;15.15;7.93;;;;;;;3.34;79.16;93871.50;5015431;28;20700;-67
2020/12/15 07:11:27;;;;;;;12.00;6.22;;;;;;;3.47;79.06;93878.00;5028148;28;20033;-66
2020/12/15 07:14:22;;;;;;;8.30;4.65;;;;;;;3.53;78.10;93870.56;5051813;27;20519;-66
2020/12/15 07:16:51;;;;;;;11.52;5.82;;;;;;;3.46;77.78;93881.22;5025897;28;20417;-67
2020/12/15 07:19:18;;;;;;;10.65;5.13;;;;;;;3.34;78.56;93883.16;5017308;28;20040;-65
2020/12/15 07:21:43;;;;;;;12.88;6.47;;;;;;;3.40;79.15;93892.09;5019384;28;20034;-67
2020/12/15 07:24:13;;;;;;;12.98;8.77;;;;;;;3.60;78.16;93891.94;5019327;28;20125;-68
2020/12/15 07:26:39;;;;;;;11.07;6.10;;;;;;;3.73;77.24;93894.94;5027305;28;20056;-67
2020/12/15 07:29:07;;;;;;;14.18;7.53;;;;;;;3.84;77.33;93905.13;5021073;28;20112;-67
2020/12/15 07:31:32;;;;;;;15.88;8.38;;;;;;;3.94;77.36;93902.91;5026202;28;20025;-67
2020/12/15 07:34:11;;;;;;;16.45;7.68;;;;;;;3.89;77.35;93901.66;5006197;28;20060;-68
2020/12/15 07:36:38;;;;;;;11.60;6.72;;;;;;;4.03;76.53;93900.69;5023017;28;20090;-68
2020/12/15 07:39:05;;;;;;;10.40;6.35;;;;;;;4.27;76.61;93916.59;5022584;28;20034;-67
2020/12/15 07:41:36;;;;;;;10.63;6.80;;;;;;;4.27;76.06;93900.94;5017990;28;20120;-67
2020/12/15 07:44:03;;;;;;;19.13;11.50;;;;;;;4.44;75.50;93914.63;5023311;28;20079;-67
2020/12/15 07:46:29;;;;;;;15.82;10.15;;;;;;;4.55;75.29;93915.34;5019981;28;20524;-67
2020/12/15 07:48:54;;;;;;;11.65;6.55;;;;;;;4.61;74.71;93918.09;5021875;28;20116;-67
2020/12/15 07:51:20;;;;;;;7.70;4.95;;;;;;;4.65;74.36;93904.16;5020597;28;20397;-66
2020/12/15 07:53:53;;;;;;;11.02;6.78;;;;;;;4.77;73.63;93920.06;5029739;28;20089;-66
2020/12/15 07:56:19;;;;;;;6.70;3.95;;;;;;;4.59;73.87;93918.56;5026608;28;20911;-66
2020/12/15 07:58:49;;;;;;;4.97;3.72;;;;;;;4.67;74.42;93918.84;5024014;28;20037;-67
2020/12/15 08:01:28;;;;;;;9.55;6.38;;;;;;;4.79;74.57;93923.03;5020148;28;20037;-67
2020/12/15 08:04:07;;;;;;;;;;;;;;;4.77;74.44;93925.53;5029575;28;20038;-67
2020/12/15 08:06:52;;;;;;;17.67;9.10;;;;;;;4.73;74.78;93925.03;5023080;28;19932;-65
2020/12/15 08:09:17;;;;;;;15.52;7.82;;;;;;;4.82;74.76;93926.75;5022579;28;20085;-66
2020/12/15 08:11:45;;;;;;;14.68;9.02;;;;;;;4.93;74.93;93926.75;5029643;28;20037;-65
2020/12/15 08:14:12;;;;;;;15.32;9.07;;;;;;;4.94;74.36;93922.75;5023405;28;20510;-62
2020/12/15 08:16:38;;;;;;;19.33;9.00;;;;;;;4.98;74.32;93923.97;5019996;28;20090;-63
2020/12/15 08:19:04;;;;;;;18.52;8.10;;;;;;;4.93;74.22;93930.22;5022132;28;20728;-64
2020/12/15 08:21:48;;;;;;;9.13;5.78;;;;;;;4.97;74.42;93933.44;5022872;28;20072;-63
2020/12/15 08:24:18;;;;;;;13.00;6.95;;;;;;;5.10;74.28;93938.41;5018465;28;20081;-67
2020/12/15 08:26:44;;;;;;;11.18;7.45;;;;;;;5.18;73.77;93937.38;5022739;28;20041;-65
2020/12/15 08:29:11;;;;;;;11.13;5.97;;;;;;;4.91;73.73;93935.47;5020513;28;20033;-66
2020/12/15 08:31:38;;;;;;;17.23;7.65;;;;;;;4.96;74.43;93948.38;5022275;28;20065;-67
2020/12/15 08:34:16;;;;;;;11.95;6.22;;;;;;;4.90;74.37;93955.84;5017382;28;20037;-67
2020/12/15 08:36:53;;;;;;;8.77;5.60;;;;;;;4.87;74.33;93936.97;5025219;28;20029;-69
2020/12/15 08:39:22;;;;;;;11.50;6.13;;;;;;;4.91;74.28;93946.41;5023154;28;20033;-68
2020/12/15 08:41:52;;;;;;;7.57;4.95;;;;;;;4.91;74.47;93953.88;5014607;28;20036;-68
2020/12/15 08:44:19;;;;;;;10.40;6.15;;;;;;;4.90;74.60;93942.16;5023044;28;20041;-68
2020/12/15 08:46:45;;;;;;;9.63;6.38;;;;;;;4.91;74.26;93934.72;5015513;28;20091;-67
2020/12/15 08:49:15;;;;;;;13.25;7.05;;;;;;;5.14;73.73;93947.84;5018469;28;20025;-67
2020/12/15 08:51:48;;;;;;;8.43;5.72;;;;;;;5.27;73.55;93939.09;5017196;28;20480;-68
2020/12/15 08:54:14;;;;;;;6.78;4.47;;;;;;;5.35;73.75;93927.13;5020145;28;20037;-68
2020/12/15 08:56:41;;;;;;;9.75;5.60;;;;;;;5.38;73.13;93934.34;5018994;28;20037;-66
2020/12/15 08:59:20;;;;;;;12.35;7.60;;;;;;;5.55;72.76;93930.78;5023145;28;20136;-67
2020/12/15 09:01:46;;;;;;;8.32;5.03;;;;;;;5.59;72.67;93929.25;5026764;28;20897;-67
2020/12/15 09:04:13;;;;;;;6.03;4.60;;;;;;;5.70;71.90;93934.69;5021886;28;20405;-66
2020/12/15 09:06:39;;;;;;;7.20;4.93;;;;;;;5.90;71.77;93922.66;5029617;28;20416;-64
2020/12/15 09:09:06;;;;;;;9.88;5.95;;;;;;;5.95;71.21;93922.66;5029619;28;20033;-68
2020/12/15 09:11:32;;;;;;;6.45;3.83;;;;;;;5.99;70.61;93922.38;5021702;28;20052;-68
2020/12/15 09:13:59;;;;;;;7.10;4.18;;;;;;;5.91;71.47;93926.91;5024746;28;20038;-65
2020/12/15 09:16:30;;;;;;;6.85;3.42;;;;;;;6.16;71.07;93922.25;5026364;28;20434;-65
2020/12/15 09:18:56;;;;;;;6.88;3.65;;;;;;;6.34;70.61;93919.66;5028495;28;20025;-64
2020/12/15 09:21:22;;;;;;;5.47;3.85;;;;;;;6.32;70.33;93907.69;5024344;28;20029;-70
2020/12/15 09:23:52;;;;;;;7.35;3.53;;;;;;;6.57;69.86;93917.47;5030718;28;20032;-69
2020/12/15 09:26:18;;;;;;;4.22;3.13;;;;;;;6.80;69.16;93924.25;5028934;27;20061;-68
2020/12/15 09:28:44;;;;;;;5.40;3.28;;;;;;;6.71;69.02;93911.59;5019235;28;20037;-69
2020/12/15 09:31:17;;;;;;;4.60;3.22;;;;;;;6.80;68.43;93921.50;5024767;28;20111;-64
2020/12/15 09:33:45;;;;;;;11.57;8.07;;;;;;;6.74;68.92;93921.56;5029310;28;20515;-65
2020/12/15 09:36:15;;;;;;;7.75;3.58;;;;;;;6.63;69.71;93912.66;5020529;28;20152;-66
2020/12/15 09:38:41;;;;;;;3.97;2.95;;;;;;;6.74;68.38;93918.81;5031185;28;20526;-68
2020/12/15 09:41:07;;;;;;;5.38;3.72;;;;;;;6.92;67.99;93909.16;5032750;28;20469;-68
2020/12/15 09:43:32;;;;;;;2.88;2.25;;;;;;;7.06;67.75;93901.81;5014547;28;20040;-69
2020/12/15 09:45:58;;;;;;;4.97;3.08;;;;;;;7.10;67.05;93896.78;5018262;28;20021;-69
2020/12/15 09:48:24;;;;;;;27.63;12.45;;;;;;;7.24;66.55;93907.34;5026244;28;20025;-69
2020/12/15 09:50:52;;;;;;;11.65;6.05;;;;;;;7.59;66.37;93898.94;5019292;28;20033;-67
2020/12/15 09:53:17;;;;;;;8.43;5.93;;;;;;;7.68;65.61;93900.59;5028223;28;20119;-66
2020/12/15 09:55:43;;;;;;;4.32;3.22;;;;;;;7.79;65.36;93905.94;5021963;28;20212;-67
2020/12/15 09:58:09;;;;;;;5.07;3.50;;;;;;;7.86;64.67;93904.59;5026996;28;20040;-64
2020/12/15 10:00:34;;;;;;;3.53;2.80;;;;;;;7.85;65.49;93900.34;5021229;28;20041;-68
2020/12/15 10:03:00;;;;;;;2.67;2.13;;;;;;;7.91;64.71;93906.53;5017209;28;20492;-65
2020/12/15 10:05:26;;;;;;;3.20;1.80;;;;;;;8.13;63.94;93908.97;5019662;28;20029;-67
2020/12/15 10:07:51;;;;;;;3.35;2.65;;;;;;;8.08;63.69;93904.28;5025718;28;20052;-66
2020/12/15 10:10:17;;;;;;;4.53;2.90;;;;;;;8.01;64.16;93900.13;5022665;28;20033;-67
2020/12/15 10:12:43;;;;;;;4.30;2.95;;;;;;;8.23;64.46;93904.56;5020334;28;20064;-66
2020/12/15 10:15:10;;;;;;;7.43;5.00;;;;;;;8.28;63.00;93896.28;5029934;27;20108;-65
2020/12/15 10:17:37;;;;;;;3.03;2.38;;;;;;;8.24;64.29;93897.81;5024933;28;20029;-65
2020/12/15 10:20:04;;;;;;;5.85;3.70;;;;;;;8.19;63.30;93893.13;5027140;28;20120;-66
2020/12/15 10:22:29;;;;;;;3.65;2.28;;;;;;;8.23;64.43;93899.81;5023576;28;20543;-65
2020/12/15 10:24:55;;;;;;;8.90;2.80;;;;;;;8.48;63.99;93888.72;5022314;28;20037;-65
2020/12/15 10:27:21;;;;;;;5.60;4.03;;;;;;;8.75;63.02;93871.03;5023126;28;20025;-66
2020/12/15 10:29:47;;;;;;;3.40;2.35;;;;;;;9.15;61.10;93898.06;5018651;28;20108;-68
2020/12/15 10:32:13;;;;;;;5.13;3.47;;;;;;;9.36;60.75;93884.41;5021100;28;20029;-68
2020/12/15 10:34:39;;;;;;;4.60;3.40;;;;;;;9.48;60.57;93882.19;5020714;27;20090;-67
2020/12/15 10:37:05;;;;;;;6.22;2.67;;;;;;;9.59;60.97;93871.69;5023784;28;20032;-67
2020/12/15 10:39:30;;;;;;;6.78;4.22;;;;;;;9.44;59.19;93876.97;5029798;28;20064;-65
2020/12/15 10:41:56;;;;;;;6.38;4.18;;;;;;;9.16;60.73;93877.50;5022435;28;20033;-67
2020/12/15 10:44:21;;;;;;;3.45;2.65;;;;;;;9.44;60.09;93876.25;5033083;28;20021;-66
2020/12/15 10:46:47;;;;;;;2.75;2.08;;;;;;;9.34;59.98;93858.66;5016321;28;21553;-66
2020/12/15 10:49:16;;;;;;;3.72;2.50;;;;;;;9.84;60.06;93883.19;5023939;28;20481;-67
2020/12/15 10:51:42;;;;;;;3.95;2.38;;;;;;;9.83;58.57;93873.44;5030622;28;20097;-66
2020/12/15 10:54:07;;;;;;;3.88;2.50;;;;;;;10.07;58.11;93873.16;5026537;27;20096;-69
2020/12/15 10:56:33;;;;;;;4.82;2.80;;;;;;;10.10;57.88;93861.06;5021943;28;20052;-69
2020/12/15 10:58:59;;;;;;;3.55;2.30;;;;;;;10.34;57.90;93874.59;5016063;28;20090;-67
2020/12/15 11:01:26;;;;;;;6.50;3.15;;;;;;;10.52;57.38;93875.69;5018289;28;20098;-67
2020/12/15 11:03:52;;;;;;;4.15;2.90;;;;;;;10.52;57.46;93872.91;5024729;28;20042;-67
2020/12/15 11:06:18;;;;;;;4.60;3.28;;;;;;;10.45;56.65;93877.09;5029126;28;20134;-67
2020/12/15 11:08:43;;;;;;;8.05;5.75;;;;;;;10.65;56.68;93867.34;5004457;28;20370;-68
2020/12/15 11:11:12;;;;;;;7.88;3.88;;;;;;;11.20;56.35;93868.66;5014286;28;20541;-69
2020/12/15 11:13:38;;;;;;;;;;;;;;;11.90;53.26;93869.28;5022960;28;20041;-67
2020/12/15 11:16:04;;;;;;;3.05;2.17;;;;;;;12.73;51.67;93863.19;5016538;28;19965;-69
2020/12/15 11:18:29;;;;;;;4.45;3.55;;;;;;;13.23;49.96;93861.56;5025173;28;20041;-65
2020/12/15 11:20:55;;;;;;;4.90;3.08;;;;;;;13.56;47.94;93855.56;5018430;28;20029;-65
2020/12/15 11:23:20;;;;;;;11.40;6.72;;;;;;;14.60;45.80;93854.97;5029277;28;20033;-66
2020/12/15 11:25:47;;;;;;;14.80;7.53;;;;;;;15.15;43.90;93855.50;5024461;28;20025;-66
2020/12/15 11:28:13;;;;;;;8.20;5.30;;;;;;;15.22;44.17;93848.41;5024692;28;20026;-66
2020/12/15 11:30:38;;;;;;;6.32;4.25;;;;;;;15.73;42.77;93851.25;5020469;28;20443;-68
2020/12/15 11:33:04;;;;;;;9.98;4.05;;;;;;;15.75;42.61;93859.03;5016907;28;20116;-68
2020/12/15 11:35:32;;;;;;;7.47;3.95;;;;;;;16.10;41.21;93866.06;5030948;28;20506;-70
2020/12/15 11:37:59;;;;;;;6.93;5.30;;;;;;;15.83;41.57;93859.69;5025523;28;20040;-69
2020/12/15 11:40:26;;;;;;;4.68;3.15;;;;;;;15.43;42.46;93873.06;5024200;28;20090;-70